sensor_id;sensor_type;location;lat;lon;timestamp;temperature;humidity
49124;DHT22;48506;48.202;16.274;2023-04-16T00:01:40;7.50;99.90
49124;DHT22;48506;48.202;16.274;2023-04-16T00:04:05;7.50;99.90
49124;DHT22;48506;48.202;16.274;2023-04-16T00:06:32;7.50;99.90
49124;DHT22;48506;48.202;16.274;2023-04-16T00:08:57;7.60;99.90
49124;DHT22;48506;48.202;16.274;2023-04-16T00:11:24;7.60;99.90
49124;DHT22;48506;48.202;16.274;2023-04-16T00:13:50;7.60;99.90
49124;DHT22;48506;48.202;16.274;2023-04-16T00:16:16;7.70;99.90
49124;DHT22;48506;48.202;16.274;2023-04-16T00:18:42;7.60;99.90
49124;DHT22;48506;48.202;16.274;2023-04-16T00:21:08;7.70;99.90
49124;DHT22;48506;48.202;16.274;2023-04-16T00:23:34;7.60;99.90
49124;DHT22;48506;48.202;16.274;2023-04-16T00:26:00;7.60;99.90
49124;DHT22;48506;48.202;16.274;2023-04-16T00:28:26;7.60;99.90
49124;DHT22;48506;48.202;16.274;2023-04-16T00:30:53;7.50;99.90
49124;DHT22;48506;48.202;16.274;2023-04-16T00:33:19;7.50;99.90
49124;DHT22;48506;48.202;16.274;2023-04-16T00:35:46;7.50;99.90
49124;DHT22;48506;48.202;16.274;2023-04-16T00:38:12;7.40;99.90
49124;DHT22;48506;48.202;16.274;2023-04-16T00:40:38;7.40;99.90
49124;DHT22;48506;48.202;16.274;2023-04-16T00:43:05;7.40;99.90
49124;DHT22;48506;48.202;16.274;2023-04-16T00:45:31;7.40;99.90
49124;DHT22;48506;48.202;16.274;2023-04-16T00:47:57;7.30;99.90
49124;DHT22;48506;48.202;16.274;2023-04-16T00:50:23;7.30;99.90
49124;DHT22;48506;48.202;16.274;2023-04-16T00:52:50;7.20;99.90
49124;DHT22;48506;48.202;16.274;2023-04-16T00:55:16;7.20;99.90
49124;DHT22;48506;48.202;16.274;2023-04-16T00:57:44;7.10;99.90
49124;DHT22;48506;48.202;16.274;2023-04-16T01:00:11;7.10;99.90
49124;DHT22;48506;48.202;16.274;2023-04-16T01:02:37;7.00;99.90
49124;DHT22;48506;48.202;16.274;2023-04-16T01:05:04;7.00;99.90
49124;DHT22;48506;48.202;16.274;2023-04-16T01:07:30;7.00;99.90
49124;DHT22;48506;48.202;16.274;2023-04-16T01:09:56;6.90;99.90
49124;DHT22;48506;48.202;16.274;2023-04-16T01:12:22;6.90;99.90
49124;DHT22;48506;48.202;16.274;2023-04-16T01:14:48;6.90;99.90
49124;DHT22;48506;48.202;16.274;2023-04-16T01:17:15;6.90;99.90
49124;DHT22;48506;48.202;16.274;2023-04-16T01:19:41;6.90;99.90
49124;DHT22;48506;48.202;16.274;2023-04-16T01:22:07;6.80;99.90
49124;DHT22;48506;48.202;16.274;2023-04-16T01:24:34;6.80;99.90
49124;DHT22;48506;48.202;16.274;2023-04-16T01:27:00;6.80;99.90
49124;DHT22;48506;48.202;16.274;2023-04-16T01:29:26;6.70;99.90
49124;DHT22;48506;48.202;16.274;2023-04-16T01:31:52;6.70;99.90
49124;DHT22;48506;48.202;16.274;2023-04-16T01:34:19;6.70;99.90
49124;DHT22;48506;48.202;16.274;2023-04-16T01:36:45;6.60;99.90
49124;DHT22;48506;48.202;16.274;2023-04-16T01:39:11;6.60;99.90
49124;DHT22;48506;48.202;16.274;2023-04-16T01:41:40;6.60;99.90
49124;DHT22;48506;48.202;16.274;2023-04-16T01:44:06;6.60;99.90
49124;DHT22;48506;48.202;16.274;2023-04-16T01:46:33;6.50;99.90
49124;DHT22;48506;48.202;16.274;2023-04-16T01:49:00;6.60;99.90
49124;DHT22;48506;48.202;16.274;2023-04-16T01:51:27;6.60;99.90
49124;DHT22;48506;48.202;16.274;2023-04-16T01:53:53;6.50;99.90
49124;DHT22;48506;48.202;16.274;2023-04-16T01:56:19;6.60;99.90
49124;DHT22;48506;48.202;16.274;2023-04-16T01:58:45;6.60;99.90
49124;DHT22;48506;48.202;16.274;2023-04-16T02:01:12;6.60;99.90
49124;DHT22;48506;48.202;16.274;2023-04-16T02:03:39;6.60;99.90
49124;DHT22;48506;48.202;16.274;2023-04-16T02:06:05;6.60;99.90
49124;DHT22;48506;48.202;16.274;2023-04-16T02:08:31;6.60;99.90
49124;DHT22;48506;48.202;16.274;2023-04-16T02:10:58;6.60;99.90
49124;DHT22;48506;48.202;16.274;2023-04-16T02:13:24;6.60;99.90
49124;DHT22;48506;48.202;16.274;2023-04-16T02:15:51;6.50;99.90
49124;DHT22;48506;48.202;16.274;2023-04-16T02:18:17;6.50;99.90
49124;DHT22;48506;48.202;16.274;2023-04-16T02:20:45;6.50;99.90
49124;DHT22;48506;48.202;16.274;2023-04-16T02:23:12;6.50;99.90
49124;DHT22;48506;48.202;16.274;2023-04-16T02:25:42;6.50;99.90
49124;DHT22;48506;48.202;16.274;2023-04-16T02:28:10;6.50;99.90
49124;DHT22;48506;48.202;16.274;2023-04-16T02:30:38;6.50;99.90
49124;DHT22;48506;48.202;16.274;2023-04-16T02:33:05;6.50;99.90
49124;DHT22;48506;48.202;16.274;2023-04-16T02:35:36;6.50;99.90
49124;DHT22;48506;48.202;16.274;2023-04-16T02:38:03;6.50;99.90
49124;DHT22;48506;48.202;16.274;2023-04-16T02:40:30;6.50;99.90
49124;DHT22;48506;48.202;16.274;2023-04-16T02:42:56;6.50;99.90
49124;DHT22;48506;48.202;16.274;2023-04-16T02:45:23;6.50;99.90
49124;DHT22;48506;48.202;16.274;2023-04-16T02:47:50;6.50;99.90
49124;DHT22;48506;48.202;16.274;2023-04-16T02:50:17;6.50;99.90
49124;DHT22;48506;48.202;16.274;2023-04-16T02:52:43;6.50;99.90
49124;DHT22;48506;48.202;16.274;2023-04-16T02:55:09;6.50;99.90
49124;DHT22;48506;48.202;16.274;2023-04-16T02:57:35;6.50;99.90
49124;DHT22;48506;48.202;16.274;2023-04-16T03:00:01;6.60;99.90
49124;DHT22;48506;48.202;16.274;2023-04-16T03:02:30;6.60;99.90
49124;DHT22;48506;48.202;16.274;2023-04-16T03:04:55;6.60;99.90
49124;DHT22;48506;48.202;16.274;2023-04-16T03:07:21;6.60;99.90
49124;DHT22;48506;48.202;16.274;2023-04-16T03:09:47;6.60;99.90
49124;DHT22;48506;48.202;16.274;2023-04-16T03:12:14;6.60;99.90
49124;DHT22;48506;48.202;16.274;2023-04-16T03:14:39;6.60;99.90
49124;DHT22;48506;48.202;16.274;2023-04-16T03:17:05;6.70;99.90
49124;DHT22;48506;48.202;16.274;2023-04-16T03:19:31;6.70;99.90
49124;DHT22;48506;48.202;16.274;2023-04-16T03:21:57;6.70;99.90
49124;DHT22;48506;48.202;16.274;2023-04-16T03:24:23;6.80;99.90
49124;DHT22;48506;48.202;16.274;2023-04-16T03:26:49;6.80;99.90
49124;DHT22;48506;48.202;16.274;2023-04-16T03:29:15;6.80;99.90
49124;DHT22;48506;48.202;16.274;2023-04-16T03:31:40;6.80;99.90
49124;DHT22;48506;48.202;16.274;2023-04-16T03:34:06;6.80;99.90
49124;DHT22;48506;48.202;16.274;2023-04-16T03:36:32;6.90;99.90
49124;DHT22;48506;48.202;16.274;2023-04-16T03:38:58;6.90;99.90
49124;DHT22;48506;48.202;16.274;2023-04-16T03:41:24;6.90;99.90
49124;DHT22;48506;48.202;16.274;2023-04-16T03:43:51;6.90;99.90
49124;DHT22;48506;48.202;16.274;2023-04-16T03:46:17;7.00;99.90
49124;DHT22;48506;48.202;16.274;2023-04-16T03:48:43;7.00;99.90
49124;DHT22;48506;48.202;16.274;2023-04-16T03:51:09;7.00;99.90
49124;DHT22;48506;48.202;16.274;2023-04-16T03:53:35;7.00;99.90
49124;DHT22;48506;48.202;16.274;2023-04-16T03:56:00;7.10;99.90
49124;DHT22;48506;48.202;16.274;2023-04-16T03:58:26;7.10;99.90
49124;DHT22;48506;48.202;16.274;2023-04-16T04:00:52;7.10;99.90
49124;DHT22;48506;48.202;16.274;2023-04-16T04:03:20;7.10;99.90
49124;DHT22;48506;48.202;16.274;2023-04-16T04:05:46;7.20;99.90
49124;DHT22;48506;48.202;16.274;2023-04-16T04:08:11;7.20;99.90
49124;DHT22;48506;48.202;16.274;2023-04-16T04:10:38;7.20;99.90
49124;DHT22;48506;48.202;16.274;2023-04-16T04:13:05;7.30;99.90
49124;DHT22;48506;48.202;16.274;2023-04-16T04:15:31;7.30;99.90
49124;DHT22;48506;48.202;16.274;2023-04-16T04:17:57;7.30;99.90
49124;DHT22;48506;48.202;16.274;2023-04-16T04:20:24;7.30;99.90
49124;DHT22;48506;48.202;16.274;2023-04-16T04:22:50;7.30;99.90
49124;DHT22;48506;48.202;16.274;2023-04-16T04:25:16;7.30;99.90
49124;DHT22;48506;48.202;16.274;2023-04-16T04:27:42;7.30;99.90
49124;DHT22;48506;48.202;16.274;2023-04-16T04:30:09;7.30;99.90
49124;DHT22;48506;48.202;16.274;2023-04-16T04:32:35;7.30;99.90
49124;DHT22;48506;48.202;16.274;2023-04-16T04:35:01;7.30;99.90
49124;DHT22;48506;48.202;16.274;2023-04-16T04:37:28;7.40;99.90
49124;DHT22;48506;48.202;16.274;2023-04-16T04:39:54;7.40;99.90
49124;DHT22;48506;48.202;16.274;2023-04-16T04:42:21;7.50;99.90
49124;DHT22;48506;48.202;16.274;2023-04-16T04:44:47;7.50;99.90
49124;DHT22;48506;48.202;16.274;2023-04-16T04:47:13;7.60;99.90
49124;DHT22;48506;48.202;16.274;2023-04-16T04:49:40;7.70;99.90
49124;DHT22;48506;48.202;16.274;2023-04-16T04:52:06;7.70;99.90
49124;DHT22;48506;48.202;16.274;2023-04-16T04:54:33;7.70;99.90
49124;DHT22;48506;48.202;16.274;2023-04-16T04:56:59;7.80;99.90
49124;DHT22;48506;48.202;16.274;2023-04-16T04:59:24;7.80;99.90
49124;DHT22;48506;48.202;16.274;2023-04-16T05:01:50;7.90;99.90
49124;DHT22;48506;48.202;16.274;2023-04-16T05:04:16;7.90;99.90
49124;DHT22;48506;48.202;16.274;2023-04-16T05:06:43;8.00;99.90
49124;DHT22;48506;48.202;16.274;2023-04-16T05:09:10;8.00;99.90
49124;DHT22;48506;48.202;16.274;2023-04-16T05:11:40;8.10;99.90
49124;DHT22;48506;48.202;16.274;2023-04-16T05:14:07;8.10;99.90
49124;DHT22;48506;48.202;16.274;2023-04-16T05:16:36;8.20;99.90
49124;DHT22;48506;48.202;16.274;2023-04-16T05:19:02;8.20;99.90
49124;DHT22;48506;48.202;16.274;2023-04-16T05:21:28;8.20;99.90
49124;DHT22;48506;48.202;16.274;2023-04-16T05:23:55;8.30;99.90
49124;DHT22;48506;48.202;16.274;2023-04-16T05:26:21;8.40;99.90
49124;DHT22;48506;48.202;16.274;2023-04-16T05:28:47;8.40;99.90
49124;DHT22;48506;48.202;16.274;2023-04-16T05:31:13;8.40;99.90
49124;DHT22;48506;48.202;16.274;2023-04-16T05:33:39;8.50;99.90
49124;DHT22;48506;48.202;16.274;2023-04-16T05:36:05;8.60;99.90
49124;DHT22;48506;48.202;16.274;2023-04-16T05:38:31;8.60;99.90
49124;DHT22;48506;48.202;16.274;2023-04-16T05:40:57;8.70;99.90
49124;DHT22;48506;48.202;16.274;2023-04-16T05:43:24;8.70;99.90
49124;DHT22;48506;48.202;16.274;2023-04-16T05:45:50;8.70;99.90
49124;DHT22;48506;48.202;16.274;2023-04-16T05:48:16;8.80;99.90
49124;DHT22;48506;48.202;16.274;2023-04-16T05:50:42;8.80;99.90
49124;DHT22;48506;48.202;16.274;2023-04-16T05:53:08;8.90;99.90
49124;DHT22;48506;48.202;16.274;2023-04-16T05:55:35;8.90;99.90
49124;DHT22;48506;48.202;16.274;2023-04-16T05:58:03;8.90;99.90
49124;DHT22;48506;48.202;16.274;2023-04-16T06:00:32;9.00;99.90
49124;DHT22;48506;48.202;16.274;2023-04-16T06:02:58;9.10;99.90
49124;DHT22;48506;48.202;16.274;2023-04-16T06:05:25;9.10;99.90
49124;DHT22;48506;48.202;16.274;2023-04-16T06:07:52;9.10;99.90
49124;DHT22;48506;48.202;16.274;2023-04-16T06:10:18;9.10;99.90
49124;DHT22;48506;48.202;16.274;2023-04-16T06:12:44;9.10;99.90
49124;DHT22;48506;48.202;16.274;2023-04-16T06:15:10;9.20;99.90
49124;DHT22;48506;48.202;16.274;2023-04-16T06:17:36;9.30;99.90
49124;DHT22;48506;48.202;16.274;2023-04-16T06:20:02;9.30;99.90
49124;DHT22;48506;48.202;16.274;2023-04-16T06:22:28;9.30;99.90
49124;DHT22;48506;48.202;16.274;2023-04-16T06:24:54;9.40;99.90
49124;DHT22;48506;48.202;16.274;2023-04-16T06:27:20;9.40;99.90
49124;DHT22;48506;48.202;16.274;2023-04-16T06:29:46;9.50;99.90
49124;DHT22;48506;48.202;16.274;2023-04-16T06:32:12;9.60;99.90
49124;DHT22;48506;48.202;16.274;2023-04-16T06:34:38;9.70;99.90
49124;DHT22;48506;48.202;16.274;2023-04-16T06:37:04;9.80;99.90
49124;DHT22;48506;48.202;16.274;2023-04-16T06:39:30;9.90;99.90
49124;DHT22;48506;48.202;16.274;2023-04-16T06:41:56;10.00;99.90
49124;DHT22;48506;48.202;16.274;2023-04-16T06:44:22;10.00;99.90
49124;DHT22;48506;48.202;16.274;2023-04-16T06:46:49;10.10;99.90
49124;DHT22;48506;48.202;16.274;2023-04-16T06:49:15;10.10;99.90
49124;DHT22;48506;48.202;16.274;2023-04-16T06:51:41;10.20;99.90
49124;DHT22;48506;48.202;16.274;2023-04-16T06:54:07;10.30;99.90
49124;DHT22;48506;48.202;16.274;2023-04-16T06:56:33;10.30;99.90
49124;DHT22;48506;48.202;16.274;2023-04-16T06:59:03;10.40;99.90
49124;DHT22;48506;48.202;16.274;2023-04-16T07:01:29;10.40;99.90
49124;DHT22;48506;48.202;16.274;2023-04-16T07:03:58;10.50;99.90
49124;DHT22;48506;48.202;16.274;2023-04-16T07:06:24;10.40;99.10
49124;DHT22;48506;48.202;16.274;2023-04-16T07:08:51;10.50;99.40
49124;DHT22;48506;48.202;16.274;2023-04-16T07:11:17;10.60;99.60
49124;DHT22;48506;48.202;16.274;2023-04-16T07:13:44;10.70;99.00
49124;DHT22;48506;48.202;16.274;2023-04-16T07:16:10;10.70;99.10
49124;DHT22;48506;48.202;16.274;2023-04-16T07:18:36;10.70;99.10
49124;DHT22;48506;48.202;16.274;2023-04-16T07:21:03;10.70;99.10
49124;DHT22;48506;48.202;16.274;2023-04-16T07:23:29;10.80;98.90
49124;DHT22;48506;48.202;16.274;2023-04-16T07:25:56;10.80;98.50
49124;DHT22;48506;48.202;16.274;2023-04-16T07:28:22;10.90;98.50
49124;DHT22;48506;48.202;16.274;2023-04-16T07:30:50;10.90;97.90
49124;DHT22;48506;48.202;16.274;2023-04-16T07:33:16;10.90;97.90
49124;DHT22;48506;48.202;16.274;2023-04-16T07:35:42;11.00;98.00
49124;DHT22;48506;48.202;16.274;2023-04-16T07:38:11;11.10;97.90
49124;DHT22;48506;48.202;16.274;2023-04-16T07:40:37;11.20;98.20
49124;DHT22;48506;48.202;16.274;2023-04-16T07:43:03;11.40;98.10
49124;DHT22;48506;48.202;16.274;2023-04-16T07:45:29;11.50;97.60
49124;DHT22;48506;48.202;16.274;2023-04-16T07:47:54;11.50;97.50
49124;DHT22;48506;48.202;16.274;2023-04-16T07:50:22;11.50;97.00
49124;DHT22;48506;48.202;16.274;2023-04-16T07:52:48;11.50;97.20
49124;DHT22;48506;48.202;16.274;2023-04-16T07:55:14;11.50;96.30
49124;DHT22;48506;48.202;16.274;2023-04-16T07:57:40;11.50;96.80
49124;DHT22;48506;48.202;16.274;2023-04-16T08:00:07;11.50;96.90
49124;DHT22;48506;48.202;16.274;2023-04-16T08:02:34;11.50;96.50
49124;DHT22;48506;48.202;16.274;2023-04-16T08:05:01;11.60;96.90
49124;DHT22;48506;48.202;16.274;2023-04-16T08:07:28;11.70;96.80
49124;DHT22;48506;48.202;16.274;2023-04-16T08:09:55;11.90;96.20
49124;DHT22;48506;48.202;16.274;2023-04-16T08:12:21;12.00;96.20
49124;DHT22;48506;48.202;16.274;2023-04-16T08:14:48;12.00;96.20
49124;DHT22;48506;48.202;16.274;2023-04-16T08:17:14;12.10;95.60
49124;DHT22;48506;48.202;16.274;2023-04-16T08:19:41;12.00;95.20
49124;DHT22;48506;48.202;16.274;2023-04-16T08:22:08;12.10;95.40
49124;DHT22;48506;48.202;16.274;2023-04-16T08:24:34;12.10;95.20
49124;DHT22;48506;48.202;16.274;2023-04-16T08:27:00;12.10;95.50
49124;DHT22;48506;48.202;16.274;2023-04-16T08:29:26;12.00;95.00
49124;DHT22;48506;48.202;16.274;2023-04-16T08:31:53;12.10;95.40
49124;DHT22;48506;48.202;16.274;2023-04-16T08:34:19;12.10;94.70
49124;DHT22;48506;48.202;16.274;2023-04-16T08:36:46;12.10;95.40
49124;DHT22;48506;48.202;16.274;2023-04-16T08:39:13;12.30;95.40
49124;DHT22;48506;48.202;16.274;2023-04-16T08:41:42;12.40;94.00
49124;DHT22;48506;48.202;16.274;2023-04-16T08:44:13;12.30;93.80
49124;DHT22;48506;48.202;16.274;2023-04-16T08:46:40;12.40;93.80
49124;DHT22;48506;48.202;16.274;2023-04-16T08:49:06;12.50;93.10
49124;DHT22;48506;48.202;16.274;2023-04-16T08:51:34;12.60;93.60
49124;DHT22;48506;48.202;16.274;2023-04-16T08:54:11;12.70;93.20
49124;DHT22;48506;48.202;16.274;2023-04-16T08:56:41;12.90;93.80
49124;DHT22;48506;48.202;16.274;2023-04-16T08:59:08;13.30;93.70
49124;DHT22;48506;48.202;16.274;2023-04-16T09:01:35;13.60;93.30
49124;DHT22;48506;48.202;16.274;2023-04-16T09:04:04;13.70;93.50
49124;DHT22;48506;48.202;16.274;2023-04-16T09:06:32;13.80;92.20
49124;DHT22;48506;48.202;16.274;2023-04-16T09:09:00;13.80;91.80
49124;DHT22;48506;48.202;16.274;2023-04-16T09:11:29;13.80;92.70
49124;DHT22;48506;48.202;16.274;2023-04-16T09:13:56;13.90;92.80
49124;DHT22;48506;48.202;16.274;2023-04-16T09:16:24;14.20;91.80
49124;DHT22;48506;48.202;16.274;2023-04-16T09:18:51;14.30;91.30
49124;DHT22;48506;48.202;16.274;2023-04-16T09:21:19;14.30;91.10
49124;DHT22;48506;48.202;16.274;2023-04-16T09:23:46;14.40;91.40
49124;DHT22;48506;48.202;16.274;2023-04-16T09:26:12;14.50;91.30
49124;DHT22;48506;48.202;16.274;2023-04-16T09:28:46;14.50;90.10
49124;DHT22;48506;48.202;16.274;2023-04-16T09:31:17;14.50;90.40
49124;DHT22;48506;48.202;16.274;2023-04-16T09:34:04;14.50;91.40
49124;DHT22;48506;48.202;16.274;2023-04-16T09:36:31;14.30;90.90
49124;DHT22;48506;48.202;16.274;2023-04-16T09:38:59;14.20;91.00
49124;DHT22;48506;48.202;16.274;2023-04-16T09:41:32;14.00;91.40
49124;DHT22;48506;48.202;16.274;2023-04-16T09:44:04;13.80;90.60
49124;DHT22;48506;48.202;16.274;2023-04-16T09:46:36;13.60;90.50
49124;DHT22;48506;48.202;16.274;2023-04-16T09:49:23;13.50;91.30
49124;DHT22;48506;48.202;16.274;2023-04-16T09:51:53;13.50;90.70
49124;DHT22;48506;48.202;16.274;2023-04-16T09:54:21;13.50;90.60
49124;DHT22;48506;48.202;16.274;2023-04-16T09:56:47;13.70;91.70
49124;DHT22;48506;48.202;16.274;2023-04-16T09:59:17;13.80;90.70
49124;DHT22;48506;48.202;16.274;2023-04-16T10:01:45;13.90;90.10
49124;DHT22;48506;48.202;16.274;2023-04-16T10:04:21;14.00;89.70
49124;DHT22;48506;48.202;16.274;2023-04-16T10:07:05;14.10;90.50
49124;DHT22;48506;48.202;16.274;2023-04-16T10:09:36;14.20;90.00
49124;DHT22;48506;48.202;16.274;2023-04-16T10:12:05;14.30;89.80
49124;DHT22;48506;48.202;16.274;2023-04-16T10:14:32;14.40;90.00
49124;DHT22;48506;48.202;16.274;2023-04-16T10:17:03;14.40;89.50
49124;DHT22;48506;48.202;16.274;2023-04-16T10:19:31;14.50;90.60
49124;DHT22;48506;48.202;16.274;2023-04-16T10:21:58;14.70;90.20
49124;DHT22;48506;48.202;16.274;2023-04-16T10:24:25;14.90;90.00
49124;DHT22;48506;48.202;16.274;2023-04-16T10:26:54;15.10;90.10
49124;DHT22;48506;48.202;16.274;2023-04-16T10:29:22;15.10;86.00
49124;DHT22;48506;48.202;16.274;2023-04-16T10:31:50;15.00;85.70
49124;DHT22;48506;48.202;16.274;2023-04-16T10:34:18;14.90;86.30
49124;DHT22;48506;48.202;16.274;2023-04-16T10:36:49;14.70;86.30
49124;DHT22;48506;48.202;16.274;2023-04-16T10:39:22;14.70;87.20
49124;DHT22;48506;48.202;16.274;2023-04-16T10:41:50;14.70;85.70
49124;DHT22;48506;48.202;16.274;2023-04-16T10:44:33;14.70;87.30
49124;DHT22;48506;48.202;16.274;2023-04-16T10:46:59;14.80;86.10
49124;DHT22;48506;48.202;16.274;2023-04-16T10:49:25;14.80;86.80
49124;DHT22;48506;48.202;16.274;2023-04-16T10:51:56;14.80;87.00
49124;DHT22;48506;48.202;16.274;2023-04-16T10:54:25;14.80;86.20
49124;DHT22;48506;48.202;16.274;2023-04-16T10:56:52;14.80;85.90
49124;DHT22;48506;48.202;16.274;2023-04-16T10:59:23;14.80;86.40
49124;DHT22;48506;48.202;16.274;2023-04-16T11:01:52;14.80;84.60
49124;DHT22;48506;48.202;16.274;2023-04-16T11:10:02;15.00;85.60
49124;DHT22;48506;48.202;16.274;2023-04-16T11:12:36;14.90;85.20
49124;DHT22;48506;48.202;16.274;2023-04-16T11:17:42;14.70;84.80
49124;DHT22;48506;48.202;16.274;2023-04-16T11:20:25;14.80;85.50
49124;DHT22;48506;48.202;16.274;2023-04-16T11:22:56;14.90;86.60
49124;DHT22;48506;48.202;16.274;2023-04-16T11:25:27;15.10;86.80
49124;DHT22;48506;48.202;16.274;2023-04-16T11:27:58;15.60;87.20
49124;DHT22;48506;48.202;16.274;2023-04-16T11:30:37;16.10;83.40
49124;DHT22;48506;48.202;16.274;2023-04-16T11:33:07;16.30;82.10
49124;DHT22;48506;48.202;16.274;2023-04-16T11:35:33;16.50;81.80
49124;DHT22;48506;48.202;16.274;2023-04-16T11:38:01;16.50;81.50
49124;DHT22;48506;48.202;16.274;2023-04-16T11:40:30;16.70;80.40
49124;DHT22;48506;48.202;16.274;2023-04-16T11:43:23;17.00;80.30
49124;DHT22;48506;48.202;16.274;2023-04-16T11:46:05;17.50;79.60
49124;DHT22;48506;48.202;16.274;2023-04-16T11:48:51;17.80;80.20
49124;DHT22;48506;48.202;16.274;2023-04-16T11:51:18;18.10;79.10
49124;DHT22;48506;48.202;16.274;2023-04-16T11:53:49;18.20;75.30
49124;DHT22;48506;48.202;16.274;2023-04-16T11:56:33;18.00;75.60
49124;DHT22;48506;48.202;16.274;2023-04-16T12:01:35;18.40;77.20
49124;DHT22;48506;48.202;16.274;2023-04-16T12:04:02;18.50;79.30
49124;DHT22;48506;48.202;16.274;2023-04-16T12:06:28;18.40;74.90
49124;DHT22;48506;48.202;16.274;2023-04-16T12:08:54;17.70;76.10
49124;DHT22;48506;48.202;16.274;2023-04-16T12:11:20;17.10;76.00
49124;DHT22;48506;48.202;16.274;2023-04-16T12:14:06;16.70;77.20
49124;DHT22;48506;48.202;16.274;2023-04-16T12:16:34;16.60;78.10
49124;DHT22;48506;48.202;16.274;2023-04-16T12:19:01;16.50;77.70
49124;DHT22;48506;48.202;16.274;2023-04-16T12:21:41;16.40;77.10
49124;DHT22;48506;48.202;16.274;2023-04-16T12:24:11;16.40;78.10
49124;DHT22;48506;48.202;16.274;2023-04-16T12:26:57;16.30;79.00
49124;DHT22;48506;48.202;16.274;2023-04-16T12:29:27;16.30;80.30
49124;DHT22;48506;48.202;16.274;2023-04-16T12:31:54;16.40;80.20
49124;DHT22;48506;48.202;16.274;2023-04-16T12:34:21;16.70;79.40
49124;DHT22;48506;48.202;16.274;2023-04-16T12:36:48;17.00;78.40
49124;DHT22;48506;48.202;16.274;2023-04-16T12:39:15;17.30;77.30
49124;DHT22;48506;48.202;16.274;2023-04-16T12:41:42;17.40;78.40
49124;DHT22;48506;48.202;16.274;2023-04-16T12:44:15;17.70;77.40
49124;DHT22;48506;48.202;16.274;2023-04-16T12:46:44;17.80;76.70
49124;DHT22;48506;48.202;16.274;2023-04-16T12:49:10;17.80;75.40
49124;DHT22;48506;48.202;16.274;2023-04-16T12:51:39;17.60;75.80
49124;DHT22;48506;48.202;16.274;2023-04-16T12:54:06;17.50;74.40
49124;DHT22;48506;48.202;16.274;2023-04-16T12:56:32;17.50;76.00
49124;DHT22;48506;48.202;16.274;2023-04-16T12:58:59;17.50;77.20
49124;DHT22;48506;48.202;16.274;2023-04-16T13:01:26;17.70;78.10
49124;DHT22;48506;48.202;16.274;2023-04-16T13:03:54;17.80;74.70
49124;DHT22;48506;48.202;16.274;2023-04-16T13:06:21;17.70;74.10
49124;DHT22;48506;48.202;16.274;2023-04-16T13:08:47;17.50;73.40
49124;DHT22;48506;48.202;16.274;2023-04-16T13:11:13;17.20;77.00
49124;DHT22;48506;48.202;16.274;2023-04-16T13:13:39;17.10;75.70
49124;DHT22;48506;48.202;16.274;2023-04-16T13:16:05;16.90;77.20
49124;DHT22;48506;48.202;16.274;2023-04-16T13:18:34;16.90;77.00
49124;DHT22;48506;48.202;16.274;2023-04-16T13:21:01;16.70;77.70
49124;DHT22;48506;48.202;16.274;2023-04-16T13:23:27;16.40;77.30
49124;DHT22;48506;48.202;16.274;2023-04-16T13:25:53;16.30;77.90
49124;DHT22;48506;48.202;16.274;2023-04-16T13:28:20;16.10;77.70
49124;DHT22;48506;48.202;16.274;2023-04-16T13:30:46;15.80;77.10
49124;DHT22;48506;48.202;16.274;2023-04-16T13:33:12;15.70;76.90
49124;DHT22;48506;48.202;16.274;2023-04-16T13:35:38;15.60;79.70
49124;DHT22;48506;48.202;16.274;2023-04-16T13:38:04;15.60;78.90
49124;DHT22;48506;48.202;16.274;2023-04-16T13:40:30;15.50;78.90
49124;DHT22;48506;48.202;16.274;2023-04-16T13:42:58;15.40;78.80
49124;DHT22;48506;48.202;16.274;2023-04-16T13:45:24;15.40;79.30
49124;DHT22;48506;48.202;16.274;2023-04-16T13:47:51;15.30;80.00
49124;DHT22;48506;48.202;16.274;2023-04-16T13:50:17;15.40;80.90
49124;DHT22;48506;48.202;16.274;2023-04-16T13:52:43;15.50;81.40
49124;DHT22;48506;48.202;16.274;2023-04-16T13:55:10;15.60;79.00
49124;DHT22;48506;48.202;16.274;2023-04-16T13:57:39;15.60;77.10
49124;DHT22;48506;48.202;16.274;2023-04-16T14:00:07;15.60;77.90
49124;DHT22;48506;48.202;16.274;2023-04-16T14:02:35;15.70;77.30
49124;DHT22;48506;48.202;16.274;2023-04-16T14:05:02;15.80;79.00
49124;DHT22;48506;48.202;16.274;2023-04-16T14:07:29;15.90;78.50
49124;DHT22;48506;48.202;16.274;2023-04-16T14:09:55;15.90;75.50
49124;DHT22;48506;48.202;16.274;2023-04-16T14:12:22;15.80;75.10
49124;DHT22;48506;48.202;16.274;2023-04-16T14:14:48;15.80;76.30
49124;DHT22;48506;48.202;16.274;2023-04-16T14:17:15;15.80;76.60
49124;DHT22;48506;48.202;16.274;2023-04-16T14:19:41;15.90;76.70
49124;DHT22;48506;48.202;16.274;2023-04-16T14:22:08;15.90;76.40
49124;DHT22;48506;48.202;16.274;2023-04-16T14:24:34;15.90;77.80
49124;DHT22;48506;48.202;16.274;2023-04-16T14:27:00;15.80;78.70
49124;DHT22;48506;48.202;16.274;2023-04-16T14:29:27;15.80;78.50
49124;DHT22;48506;48.202;16.274;2023-04-16T14:32:08;15.60;78.70
49124;DHT22;48506;48.202;16.274;2023-04-16T14:34:34;15.60;78.90
49124;DHT22;48506;48.202;16.274;2023-04-16T14:37:02;15.30;81.10
49124;DHT22;48506;48.202;16.274;2023-04-16T14:39:29;15.20;82.10
49124;DHT22;48506;48.202;16.274;2023-04-16T14:41:56;15.10;84.50
49124;DHT22;48506;48.202;16.274;2023-04-16T14:44:23;15.00;83.60
49124;DHT22;48506;48.202;16.274;2023-04-16T14:46:50;14.80;83.90
49124;DHT22;48506;48.202;16.274;2023-04-16T14:49:16;14.70;84.00
49124;DHT22;48506;48.202;16.274;2023-04-16T14:51:44;14.70;85.70
49124;DHT22;48506;48.202;16.274;2023-04-16T14:54:12;14.70;85.10
49124;DHT22;48506;48.202;16.274;2023-04-16T14:56:41;14.80;85.70
49124;DHT22;48506;48.202;16.274;2023-04-16T14:59:13;14.70;84.70
49124;DHT22;48506;48.202;16.274;2023-04-16T15:01:39;14.70;85.50
49124;DHT22;48506;48.202;16.274;2023-04-16T15:04:06;14.70;87.30
49124;DHT22;48506;48.202;16.274;2023-04-16T15:06:33;14.70;87.30
49124;DHT22;48506;48.202;16.274;2023-04-16T15:09:01;14.70;87.20
49124;DHT22;48506;48.202;16.274;2023-04-16T15:11:27;14.70;86.70
49124;DHT22;48506;48.202;16.274;2023-04-16T15:13:53;14.70;86.80
49124;DHT22;48506;48.202;16.274;2023-04-16T15:16:19;14.70;87.40
49124;DHT22;48506;48.202;16.274;2023-04-16T15:18:45;14.60;87.80
49124;DHT22;48506;48.202;16.274;2023-04-16T15:21:12;14.60;88.50
49124;DHT22;48506;48.202;16.274;2023-04-16T15:23:38;14.50;89.90
49124;DHT22;48506;48.202;16.274;2023-04-16T15:26:06;14.50;90.40
49124;DHT22;48506;48.202;16.274;2023-04-16T15:28:32;14.50;90.80
49124;DHT22;48506;48.202;16.274;2023-04-16T15:30:58;14.40;90.30
49124;DHT22;48506;48.202;16.274;2023-04-16T15:33:24;14.30;90.30
49124;DHT22;48506;48.202;16.274;2023-04-16T15:35:51;14.20;90.40